Time;durP1;ratioP1;P1;durP2;ratioP2;P2;SDS_P1;SDS_P2;PMS_P1;PMS_P2;Temp;Humidity;BMP_temperature;BMP_pressure;BME280_temperature;BME280_humidity;BME280_pressure;Samples;Min_cycle;Max_cycle;Signal;HPM_P1;HPM_P2
2022/02/08 00:00:18;;;;;;;6.10;1.90;;;;;;;1.73;69.88;97561.50;5047311;28;20049;-74
2022/02/08 00:02:50;;;;;;;9.02;1.63;;;;;;;1.69;69.87;97567.56;5047565;28;20045;-75
2022/02/08 00:05:19;;;;;;;8.20;1.45;;;;;;;1.68;70.39;97564.06;5046761;28;20052;-74
2022/02/08 00:07:48;;;;;;;6.90;1.83;;;;;;;1.65;69.91;97563.69;5047071;28;20071;-74
2022/02/08 00:10:15;;;;;;;5.40;1.42;;;;;;;1.58;70.44;97569.19;5047359;28;20453;-75
2022/02/08 00:12:42;;;;;;;3.70;1.40;;;;;;;1.56;70.38;97565.91;5047237;28;20135;-74
2022/02/08 00:15:09;;;;;;;6.50;1.50;;;;;;;1.58;70.48;97563.00;5046946;28;20444;-75
2022/02/08 00:17:35;;;;;;;6.35;1.85;;;;;;;1.56;70.48;97573.94;5047100;28;20122;-74
2022/02/08 00:20:04;;;;;;;7.82;1.90;;;;;;;1.58;70.55;97571.88;5047411;28;20408;-76
2022/02/08 00:22:31;;;;;;;4.95;1.38;;;;;;;1.64;70.24;97576.31;5047210;28;20072;-75
2022/02/08 00:24:57;;;;;;;7.45;2.78;;;;;;;1.67;70.15;97589.28;5047257;28;20052;-74
2022/02/08 00:27:24;;;;;;;6.90;1.70;;;;;;;1.67;70.50;97573.19;5046653;28;20048;-74
2022/02/08 00:29:50;;;;;;;4.25;1.70;;;;;;;1.66;70.16;97584.94;5046548;28;20049;-75
2022/02/08 00:32:17;;;;;;;7.35;1.60;;;;;;;1.68;69.80;97580.19;5046458;28;20060;-74
2022/02/08 00:34:43;;;;;;;5.97;2.20;;;;;;;1.66;69.86;97587.63;5046968;28;20045;-75
2022/02/08 00:37:12;;;;;;;8.95;1.67;;;;;;;1.63;69.94;97595.34;5046611;28;20049;-74
2022/02/08 00:39:39;;;;;;;5.68;1.70;;;;;;;1.62;70.07;97586.47;5046917;28;20114;-75
2022/02/08 00:42:08;;;;;;;4.60;1.67;;;;;;;1.59;69.77;97584.25;5046457;28;20449;-74
2022/02/08 00:44:39;;;;;;;5.70;2.00;;;;;;;1.58;69.75;97592.53;5046898;28;20509;-75
2022/02/08 00:47:17;;;;;;;7.25;1.45;;;;;;;1.56;70.42;97590.06;5045898;28;20069;-74
2022/02/08 00:49:44;;;;;;;8.27;1.95;;;;;;;1.58;69.86;97589.84;5047002;28;20130;-74
2022/02/08 00:52:15;;;;;;;4.43;1.42;;;;;;;1.59;69.93;97594.97;5046369;28;20500;-74
2022/02/08 00:54:42;;;;;;;3.30;1.30;;;;;;;1.52;69.75;97602.31;5047146;28;20044;-74
2022/02/08 00:57:08;;;;;;;7.65;1.40;;;;;;;1.49;69.90;97598.22;5046036;28;20072;-74
2022/02/08 00:59:35;;;;;;;9.57;2.33;;;;;;;1.45;70.10;97594.34;5046546;28;20052;-74
2022/02/08 01:02:02;;;;;;;7.63;2.00;;;;;;;1.48;70.64;97601.94;5046722;28;20056;-74
2022/02/08 01:04:28;;;;;;;10.48;1.65;;;;;;;1.51;70.19;97611.41;5046284;28;20048;-74
2022/02/08 01:06:56;;;;;;;7.13;1.75;;;;;;;1.51;70.19;97611.41;5046525;28;20124;-75
2022/02/08 01:09:34;;;;;;;7.97;1.73;;;;;;;1.49;69.97;97613.50;5046244;28;20818;-74
2022/02/08 01:12:01;;;;;;;5.50;1.80;;;;;;;1.47;69.95;97616.44;5046688;28;20049;-74
2022/02/08 01:14:29;;;;;;;5.60;1.92;;;;;;;1.47;69.67;97615.63;5046207;28;20049;-75
2022/02/08 01:16:56;;;;;;;7.90;1.77;;;;;;;1.49;70.00;97618.88;5046352;28;20095;-74
2022/02/08 01:19:23;;;;;;;6.55;1.60;;;;;;;1.48;70.15;97617.25;5046129;28;20052;-75
2022/02/08 01:21:49;;;;;;;8.10;1.90;;;;;;;1.47;70.16;97623.66;5046444;28;20067;-74
2022/02/08 01:24:16;;;;;;;7.70;1.85;;;;;;;1.34;70.31;97615.78;5046247;28;20049;-75
2022/02/08 01:26:49;;;;;;;7.03;1.83;;;;;;;1.15;70.91;97623.91;5045875;28;20526;-74
2022/02/08 01:29:24;;;;;;;8.23;2.13;;;;;;;1.02;71.75;97616.00;5045807;28;20422;-75
2022/02/08 01:31:52;;;;;;;9.60;1.85;;;;;;;0.92;72.24;97608.50;5046183;28;20487;-74
2022/02/08 01:34:36;;;;;;;5.25;1.73;;;;;;;0.87;72.32;97615.56;5045955;28;20052;-74
2022/02/08 01:37:09;;;;;;;5.07;2.05;;;;;;;0.81;72.66;97609.25;5045964;28;20055;-75
2022/02/08 01:39:43;;;;;;;6.38;2.10;;;;;;;0.81;72.81;97614.63;5046476;28;20059;-74
2022/02/08 01:42:33;;;;;;;8.98;2.33;;;;;;;0.77;72.67;97608.88;5046509;28;20048;-74
2022/02/08 01:45:22;;;;;;;10.30;2.80;;;;;;;0.66;72.85;97612.31;5049980;28;20407;-75
2022/02/08 01:48:01;;;;;;;5.95;2.05;;;;;;;0.58;72.62;97609.13;5029759;28;20548;-75
2022/02/08 01:50:27;;;;;;;7.10;2.33;;;;;;;0.54;72.94;97619.47;5029733;28;20481;-75
2022/02/08 01:52:54;;;;;;;8.73;2.15;;;;;;;0.45;73.10;97620.78;5030014;28;20045;-74
2022/02/08 01:55:20;;;;;;;7.10;1.63;;;;;;;0.40;73.26;97620.66;5029528;28;20060;-74
2022/02/08 01:57:48;;;;;;;9.10;2.03;;;;;;;0.42;72.97;97608.69;5029863;28;20058;-75
2022/02/08 02:00:17;;;;;;;10.20;1.83;;;;;;;0.40;73.17;97604.56;5029455;28;20045;-74
2022/02/08 02:02:44;;;;;;;5.43;1.88;;;;;;;0.41;73.48;97603.50;5029975;28;20688;-75
2022/02/08 02:05:10;;;;;;;8.65;2.33;;;;;;;0.40;73.17;97593.84;5029670;28;20053;-74
2022/02/08 02:07:46;;;;;;;5.50;2.03;;;;;;;0.41;73.26;97600.84;5029559;28;20049;-75
2022/02/08 02:10:13;;;;;;;7.28;2.60;;;;;;;0.44;73.23;97595.84;5029248;28;20056;-75
2022/02/08 02:12:54;;;;;;;6.53;1.65;;;;;;;0.46;73.28;97604.47;5029661;28;20045;-75
2022/02/08 02:15:21;;;;;;;6.07;1.90;;;;;;;0.51;73.25;97601.13;5031900;28;20073;-75
2022/02/08 02:17:48;;;;;;;5.32;1.85;;;;;;;0.49;73.20;97597.88;5049614;28;20511;-75
2022/02/08 02:20:15;;;;;;;6.68;2.10;;;;;;;0.47;72.93;97605.31;5049080;28;20052;-74
2022/02/08 02:22:41;;;;;;;5.43;2.03;;;;;;;0.52;72.25;97605.44;5049308;28;20048;-74
2022/02/08 02:25:19;;;;;;;11.40;1.98;;;;;;;0.57;72.45;97608.28;5049077;28;20053;-74
2022/02/08 02:27:46;;;;;;;6.93;2.05;;;;;;;0.61;71.99;97609.47;5049235;28;20052;-74
2022/02/08 02:30:13;;;;;;;5.45;1.95;;;;;;;0.70;72.00;97605.47;5049187;28;20068;-74
2022/02/08 02:32:40;;;;;;;6.75;1.80;;;;;;;0.72;71.50;97619.44;5049034;28;20423;-75
2022/02/08 02:35:07;;;;;;;6.72;1.77;;;;;;;0.74;71.50;97611.22;5048564;28;20078;-74
2022/02/08 02:37:33;;;;;;;6.95;1.65;;;;;;;0.69;71.17;97614.56;5048815;28;20056;-74
2022/02/08 02:40:00;;;;;;;9.73;2.00;;;;;;;0.75;70.89;97613.66;5049233;28;20045;-75
2022/02/08 02:42:29;;;;;;;9.15;2.08;;;;;;;0.77;71.15;97611.56;5048399;28;20045;-75
2022/02/08 02:44:56;;;;;;;9.63;2.20;;;;;;;0.80;71.22;97610.31;5049126;28;20076;-75
2022/02/08 02:47:24;;;;;;;5.03;1.60;;;;;;;0.71;71.42;97604.41;5048282;28;20456;-74
2022/02/08 02:49:50;;;;;;;7.03;1.77;;;;;;;0.66;71.84;97609.63;5048936;28;20045;-75
2022/02/08 02:52:17;;;;;;;5.60;1.50;;;;;;;0.67;71.51;97605.09;5048403;28;20057;-74
2022/02/08 02:54:44;;;;;;;4.07;1.40;;;;;;;0.70;71.38;97613.50;5048505;28;20049;-74
2022/02/08 02:57:12;;;;;;;7.22;1.80;;;;;;;0.70;71.22;97618.06;5048342;28;20058;-74
2022/02/08 02:59:41;;;;;;;8.50;1.98;;;;;;;0.75;71.06;97619.03;5048729;28;20055;-74
2022/02/08 03:04:57;;;;;;;;;;;;;;;0.72;71.62;97608.72;5048914;28;20186;-74
2022/02/08 03:18:35;;;;;;;8.25;1.58;;;;;;;0.76;70.26;97607.25;5047941;28;20051;-76
2022/02/08 03:21:02;;;;;;;6.72;1.77;;;;;;;0.83;70.26;97606.34;5048050;28;20124;-75
2022/02/08 03:23:29;;;;;;;7.97;2.20;;;;;;;0.83;70.02;97609.03;5048251;28;20095;-75
2022/02/08 03:25:56;;;;;;;4.63;1.40;;;;;;;0.88;69.79;97614.53;5048236;28;20072;-74
2022/02/08 03:28:22;;;;;;;9.30;1.58;;;;;;;0.83;70.05;97617.06;5047706;28;20049;-74
2022/02/08 03:30:50;;;;;;;6.72;1.70;;;;;;;0.82;69.56;97620.78;5048185;28;20053;-74
2022/02/08 03:33:17;;;;;;;4.88;1.67;;;;;;;0.89;69.88;97618.84;5047655;28;20695;-74
2022/02/08 03:35:44;;;;;;;4.55;1.30;;;;;;;0.91;69.78;97617.59;5047937;28;20057;-74
2022/02/08 03:38:12;;;;;;;3.50;1.67;;;;;;;0.97;69.46;97610.50;5047521;28;20057;-74
2022/02/08 03:40:42;;;;;;;5.00;1.60;;;;;;;0.98;69.32;97612.13;5048172;28;20045;-74
2022/02/08 03:43:16;;;;;;;7.03;2.20;;;;;;;1.00;69.07;97616.25;5046930;28;20143;-74
2022/02/08 03:45:47;;;;;;;10.90;1.92;;;;;;;1.08;69.47;97612.41;5047314;28;20048;-75
2022/02/08 03:48:18;;;;;;;8.98;1.63;;;;;;;1.09;69.07;97622.09;5047311;28;20809;-75
2022/02/08 03:50:50;;;;;;;5.70;1.38;;;;;;;1.13;68.38;97615.25;5047692;28;20045;-74
2022/02/08 03:53:17;;;;;;;7.05;1.40;;;;;;;1.20;67.64;97616.00;5047308;28;20048;-74
2022/02/08 03:55:44;;;;;;;6.38;1.60;;;;;;;1.27;67.64;97605.16;5047852;28;20044;-75
2022/02/08 03:58:11;;;;;;;6.90;1.55;;;;;;;1.29;67.54;97619.97;5046731;28;20060;-75
2022/02/08 04:00:48;;;;;;;5.63;1.35;;;;;;;1.30;67.96;97621.63;5046823;28;20564;-74
2022/02/08 04:03:16;;;;;;;5.40;1.50;;;;;;;1.23;67.72;97615.50;5047060;28;20056;-75
2022/02/08 04:05:46;;;;;;;5.68;1.25;;;;;;;1.23;67.90;97610.16;5046487;28;20640;-75
2022/02/08 04:08:15;;;;;;;4.50;1.20;;;;;;;1.22;67.73;97608.53;5047178;28;20127;-74
2022/02/08 04:10:43;;;;;;;4.88;1.35;;;;;;;1.23;67.61;97607.47;5047353;28;20064;-75
2022/02/08 04:13:14;;;;;;;9.07;1.33;;;;;;;1.26;68.13;97614.25;5047008;28;20089;-74
2022/02/08 04:15:58;;;;;;;4.55;1.30;;;;;;;1.22;68.13;97619.25;5046550;28;20624;-74
2022/02/08 04:32:19;;;;;;;6.47;1.00;;;;;;;1.45;67.27;97629.25;5046811;28;20424;-74
2022/02/08 04:35:03;;;;;;;3.03;1.20;;;;;;;1.48;67.24;97636.03;5047108;28;20132;-74
2022/02/08 04:37:55;;;;;;;4.82;1.40;;;;;;;1.41;67.24;97637.97;5046167;28;20103;-75
2022/02/08 04:43:19;;;;;;;;;;;;;;;1.36;67.49;97635.16;5047075;28;20090;-74
2022/02/08 04:45:50;;;;;;;5.40;1.08;;;;;;;1.31;67.45;97633.19;5046334;28;20008;-75
2022/02/08 04:48:32;;;;;;;6.13;1.45;;;;;;;1.38;67.57;97638.44;5045987;28;20052;-74
2022/02/08 04:51:11;;;;;;;6.07;1.40;;;;;;;1.47;66.96;97635.22;5046823;28;20102;-74
2022/02/08 04:53:44;;;;;;;5.03;1.35;;;;;;;1.54;66.65;97627.06;5046432;28;20496;-75
2022/02/08 04:56:19;;;;;;;5.63;1.33;;;;;;;1.61;66.25;97635.81;5046491;28;20056;-75
2022/02/08 04:58:51;;;;;;;7.15;1.10;;;;;;;1.60;66.38;97631.50;5046596;28;20056;-74
2022/02/08 05:01:23;;;;;;;4.07;1.57;;;;;;;1.62;66.15;97629.44;5046158;28;20057;-74
2022/02/08 05:37:41;;;;;;;12.95;1.30;;;;;;;1.57;67.27;97610.50;5030413;28;20060;-74
2022/02/08 05:43:10;;;;;;;7.47;1.20;;;;;;;1.62;66.48;97617.84;5064180;28;20051;-74
2022/02/08 05:45:58;;;;;;;6.15;1.25;;;;;;;1.61;66.35;97619.72;5042844;28;20037;-74
2022/02/08 05:48:28;;;;;;;7.63;1.15;;;;;;;1.68;66.60;97623.13;5043127;28;20057;-74
2022/02/08 05:50:59;;;;;;;7.00;1.25;;;;;;;1.71;65.81;97624.53;5043753;28;20053;-74
2022/02/08 05:53:31;;;;;;;5.07;1.23;;;;;;;1.77;65.82;97626.28;5043371;28;20069;-74
2022/02/08 05:55:58;;;;;;;5.60;1.30;;;;;;;1.74;65.29;97627.59;5043566;28;20076;-73
2022/02/08 05:58:25;;;;;;;4.85;1.48;;;;;;;1.78;65.90;97623.41;5042859;28;20425;-74
2022/02/08 06:00:51;;;;;;;5.90;1.00;;;;;;;1.77;65.68;97613.69;5043523;28;20673;-74
2022/02/08 06:03:19;;;;;;;4.60;1.70;;;;;;;1.80;65.62;97626.66;5042916;28;20049;-74
2022/02/08 06:05:48;;;;;;;7.20;1.70;;;;;;;1.82;65.65;97624.53;5043418;28;20107;-73
2022/02/08 06:08:15;;;;;;;7.88;1.42;;;;;;;1.83;65.47;97628.06;5042719;28;20048;-74
2022/02/08 06:10:48;;;;;;;4.85;1.20;;;;;;;1.83;65.85;97618.16;5043488;28;20067;-73
2022/02/08 06:13:15;;;;;;;7.18;1.02;;;;;;;1.81;65.26;97617.53;5043606;28;20666;-74
2022/02/08 06:15:43;;;;;;;7.95;1.15;;;;;;;1.83;65.25;97626.22;5043578;28;20045;-74
2022/02/08 06:18:10;;;;;;;5.82;1.15;;;;;;;1.85;65.81;97617.91;5042469;28;20492;-76
2022/02/08 06:20:37;;;;;;;5.00;1.10;;;;;;;1.88;65.54;97633.56;5043403;28;20053;-77
2022/02/08 06:23:05;;;;;;;9.18;1.23;;;;;;;1.92;65.24;97634.72;5042467;28;20052;-77
2022/02/08 06:25:31;;;;;;;2.65;1.02;;;;;;;1.91;64.91;97632.28;5049924;28;20048;-77
2022/02/08 06:27:58;;;;;;;4.22;1.35;;;;;;;1.92;65.13;97633.91;5061030;28;20072;-78
2022/02/08 06:30:24;;;;;;;6.20;1.17;;;;;;;1.96;64.81;97643.16;5059118;28;20045;-78
2022/02/08 06:32:54;;;;;;;6.05;1.40;;;;;;;1.96;64.88;97643.16;5061016;28;20047;-77
2022/02/08 06:35:24;;;;;;;7.72;1.13;;;;;;;2.00;65.25;97649.72;5061910;28;20048;-77
2022/02/08 06:37:52;;;;;;;3.08;0.95;;;;;;;1.98;64.67;97641.03;5062186;28;20545;-77
2022/02/08 06:40:20;;;;;;;7.18;1.35;;;;;;;1.97;64.73;97642.09;5061894;28;20048;-78
2022/02/08 06:42:46;;;;;;;6.50;1.10;;;;;;;1.99;64.40;97643.53;5050255;28;20060;-78
2022/02/08 06:45:15;;;;;;;4.38;1.25;;;;;;;1.98;64.75;97638.34;5033318;28;20568;-77
2022/02/08 06:47:43;;;;;;;5.25;1.52;;;;;;;1.99;64.50;97645.38;5029531;28;20045;-78
2022/02/08 06:50:11;;;;;;;6.80;1.20;;;;;;;2.02;64.04;97644.91;5028426;28;20054;-78
2022/02/08 06:52:37;;;;;;;5.00;1.63;;;;;;;2.01;63.98;97635.22;5029218;28;20132;-78
2022/02/08 06:55:06;;;;;;;5.32;1.00;;;;;;;2.01;64.05;97643.28;5028962;28;20046;-78
2022/02/08 06:57:48;;;;;;;7.00;1.15;;;;;;;2.03;64.33;97635.78;5028908;28;20049;-78
2022/02/08 07:00:17;;;;;;;6.10;1.02;;;;;;;2.06;63.35;97627.28;5029226;28;20049;-77
2022/02/08 07:02:44;;;;;;;2.40;1.02;;;;;;;2.08;63.46;97635.91;5029124;28;20714;-78
2022/02/08 07:05:10;;;;;;;6.03;1.20;;;;;;;2.09;62.82;97640.25;5028834;28;20052;-77
2022/02/08 07:07:37;;;;;;;4.10;1.20;;;;;;;2.11;63.21;97640.03;5028785;28;20056;-78
2022/02/08 07:10:04;;;;;;;3.70;0.85;;;;;;;2.09;63.54;97643.78;5028846;28;20065;-77
2022/02/08 07:12:31;;;;;;;5.40;1.10;;;;;;;2.12;63.54;97639.78;5029165;28;20636;-77
2022/02/08 07:15:06;;;;;;;7.63;1.10;;;;;;;2.16;63.31;97646.34;5030153;28;20053;-77
2022/02/08 07:17:32;;;;;;;5.28;1.20;;;;;;;2.15;63.08;97639.31;5028590;28;20076;-77
2022/02/08 07:19:59;;;;;;;5.07;1.30;;;;;;;2.18;63.76;97644.22;5028871;28;20049;-77
2022/02/08 07:22:25;;;;;;;5.45;1.13;;;;;;;2.17;63.85;97642.59;5028553;28;20068;-78
2022/02/08 07:24:52;;;;;;;6.13;1.35;;;;;;;2.22;64.05;97656.16;5028865;28;20540;-77
2022/02/08 07:27:18;;;;;;;4.70;1.45;;;;;;;2.21;63.32;97654.53;5028216;28;20412;-77
2022/02/08 07:29:50;;;;;;;7.50;2.10;;;;;;;2.25;63.22;97641.44;5028699;28;20061;-77
2022/02/08 07:32:20;;;;;;;6.35;1.25;;;;;;;2.23;63.47;97652.41;5028179;28;20137;-78
2022/02/08 07:34:52;;;;;;;5.72;1.02;;;;;;;2.26;62.77;97651.13;5028618;28;20065;-77
2022/02/08 07:37:22;;;;;;;10.00;1.10;;;;;;;2.28;63.08;97660.59;5027980;28;20049;-77
2022/02/08 07:39:52;;;;;;;9.23;1.15;;;;;;;2.31;62.96;97648.56;5028635;28;20049;-77
2022/02/08 07:42:19;;;;;;;3.55;0.93;;;;;;;2.31;62.62;97660.13;5028047;28;20045;-78
2022/02/08 07:44:46;;;;;;;6.25;0.95;;;;;;;2.31;62.33;97662.81;5052587;28;20044;-77
2022/02/08 07:47:13;;;;;;;6.63;1.20;;;;;;;2.41;63.20;97658.75;5067722;28;20076;-77
2022/02/08 07:49:41;;;;;;;2.25;0.75;;;;;;;2.41;62.73;97672.19;5067968;28;20041;-77
2022/02/08 07:52:08;;;;;;;6.97;1.27;;;;;;;2.46;62.74;97672.31;5067486;28;20055;-77
2022/02/08 07:54:35;;;;;;;7.75;1.25;;;;;;;2.46;62.40;97667.75;5067275;28;20056;-78
2022/02/08 07:57:02;;;;;;;4.47;1.35;;;;;;;2.47;62.86;97665.88;5068190;28;20106;-77
2022/02/08 07:59:28;;;;;;;3.20;0.90;;;;;;;2.49;62.53;97663.75;5067862;28;20044;-77
2022/02/08 08:01:54;;;;;;;5.35;1.35;;;;;;;2.48;62.32;97656.75;5068108;28;20048;-78
2022/02/08 08:04:21;;;;;;;7.25;1.20;;;;;;;2.55;62.58;97654.75;5067207;28;20059;-77
2022/02/08 08:06:49;;;;;;;8.27;1.50;;;;;;;2.58;61.81;97654.28;5067632;28;20059;-77
2022/02/08 08:09:17;;;;;;;5.47;0.98;;;;;;;2.63;61.84;97657.09;5067201;28;20044;-77
2022/02/08 08:11:45;;;;;;;5.47;1.50;;;;;;;2.63;61.15;97662.47;5067762;28;20048;-77
2022/02/08 08:14:13;;;;;;;3.65;1.10;;;;;;;2.66;61.27;97659.28;5058514;28;20041;-77
2022/02/08 08:16:50;;;;;;;6.30;1.15;;;;;;;2.70;61.34;97657.78;5047488;28;20049;-78
2022/02/08 08:19:24;;;;;;;5.07;0.93;;;;;;;2.71;60.84;97654.03;5047409;28;20146;-77
2022/02/08 08:21:52;;;;;;;10.43;1.42;;;;;;;2.79;60.45;97653.69;5047807;28;20124;-77
2022/02/08 08:24:19;;;;;;;6.93;1.40;;;;;;;2.80;60.18;97644.53;5047225;28;20401;-78
2022/02/08 08:26:45;;;;;;;5.78;1.10;;;;;;;2.86;60.08;97651.66;5047520;28;20052;-78
2022/02/08 08:29:12;;;;;;;7.15;0.98;;;;;;;2.89;60.33;97661.16;5046591;28;20047;-78
2022/02/08 08:31:39;;;;;;;7.95;1.10;;;;;;;2.93;60.14;97661.50;5047248;28;20527;-78
2022/02/08 08:34:05;;;;;;;6.05;1.02;;;;;;;2.99;59.72;97661.38;5046846;28;20049;-77
2022/02/08 08:36:32;;;;;;;2.63;0.90;;;;;;;2.99;59.40;97661.38;5047382;28;20128;-77
2022/02/08 08:39:01;;;;;;;5.55;0.98;;;;;;;3.04;59.23;97663.34;5047263;28;20399;-77
2022/02/08 08:41:32;;;;;;;5.28;1.20;;;;;;;3.14;59.08;97668.94;5047396;28;20053;-77
2022/02/08 08:52:35;;;;;;;4.00;0.90;;;;;;;3.27;57.13;97647.13;5066407;28;20086;-78
2022/02/08 08:55:05;;;;;;;4.90;1.08;;;;;;;3.33;58.07;97654.22;5067303;28;20051;-77
2022/02/08 08:57:31;;;;;;;9.70;1.52;;;;;;;3.32;57.65;97673.31;5066729;28;20131;-78
2022/02/08 08:59:58;;;;;;;6.47;1.20;;;;;;;3.33;57.64;97666.88;5066954;28;20048;-78
2022/02/08 09:02:24;;;;;;;4.78;0.95;;;;;;;3.38;57.19;97665.09;5066394;28;20045;-78
2022/02/08 09:04:53;;;;;;;7.97;1.00;;;;;;;3.46;57.35;97661.22;5066510;28;20570;-78
2022/02/08 09:07:20;;;;;;;5.72;1.38;;;;;;;3.50;57.45;97661.53;5066417;28;20052;-78
2022/02/08 09:09:51;;;;;;;5.28;1.10;;;;;;;3.53;57.04;97663.75;5066789;28;20534;-77
2022/02/08 09:12:25;;;;;;;8.73;1.20;;;;;;;3.51;56.36;97663.19;5066839;28;20052;-78
2022/02/08 09:18:14;;;;;;;3.25;0.93;;;;;;;3.53;56.32;97671.84;5003511;28;20052;-78
2022/02/08 09:21:13;;;;;;;8.43;1.05;;;;;;;3.61;56.22;97664.22;5044291;28;20052;-78
2022/02/08 09:26:48;;;;;;;6.50;1.17;;;;;;;3.87;55.46;97661.97;5066574;28;20486;-77
2022/02/08 09:29:23;;;;;;;4.20;0.90;;;;;;;4.06;55.34;97659.84;5066009;28;20045;-79
2022/02/08 09:31:58;;;;;;;2.60;1.20;;;;;;;4.17;54.74;97661.66;5066679;28;20406;-78
2022/02/08 09:34:25;;;;;;;5.53;1.10;;;;;;;4.26;53.53;97659.38;5066383;28;20518;-78
2022/02/08 09:36:51;;;;;;;4.25;1.20;;;;;;;4.29;53.04;97662.41;5066594;28;20044;-77
2022/02/08 09:39:18;;;;;;;4.13;0.93;;;;;;;4.20;52.72;97666.56;5066157;28;20060;-77
2022/02/08 09:41:47;;;;;;;3.13;0.80;;;;;;;4.22;53.00;97666.31;5066860;28;20054;-77
2022/02/08 09:44:17;;;;;;;9.77;2.42;;;;;;;4.27;52.99;97672.59;5056652;28;20107;-77
2022/02/08 09:46:45;;;;;;;2.47;0.93;;;;;;;4.40;51.69;97671.47;5046740;28;20061;-77
2022/02/08 09:49:11;;;;;;;5.75;1.08;;;;;;;4.50;51.63;97665.41;5046055;28;20056;-78
2022/02/08 09:51:44;;;;;;;3.92;1.10;;;;;;;4.54;51.78;97667.38;5046695;28;20522;-78
2022/02/08 09:54:10;;;;;;;3.63;0.90;;;;;;;4.51;50.17;97667.88;5045987;28;20045;-77
2022/02/08 09:56:37;;;;;;;2.60;0.68;;;;;;;4.67;50.30;97671.59;5046446;28;20052;-78
2022/02/08 09:59:04;;;;;;;5.32;1.02;;;;;;;4.78;49.74;97667.97;5045861;28;20048;-78
2022/02/08 10:01:30;;;;;;;2.75;0.88;;;;;;;4.80;49.11;97665.84;5046248;28;20788;-78
2022/02/08 10:04:01;;;;;;;2.38;0.90;;;;;;;4.82;50.87;97674.53;5046347;28;20049;-78
2022/02/08 10:06:29;;;;;;;3.85;0.90;;;;;;;4.81;50.44;97667.50;5046092;28;20045;-78
2022/02/08 10:09:00;;;;;;;3.25;0.70;;;;;;;4.82;49.60;97676.41;5046130;28;20801;-78
2022/02/08 10:11:29;;;;;;;5.55;0.70;;;;;;;4.81;49.04;97667.50;5045668;28;20052;-78
2022/02/08 10:14:03;;;;;;;4.50;1.17;;;;;;;4.87;48.25;97665.69;5046152;28;20045;-78
2022/02/08 10:22:07;;;;;;;3.40;0.80;;;;;;;5.14;48.91;97654.97;5047043;28;20045;-76
2022/02/08 10:24:36;;;;;;;2.65;1.00;;;;;;;5.06;47.99;97650.81;5050054;28;20052;-78
2022/02/08 10:27:14;;;;;;;4.85;1.00;;;;;;;5.12;48.16;97647.13;5049451;28;20061;-76
2022/02/08 10:29:55;;;;;;;6.25;0.90;;;;;;;5.24;48.29;97649.69;5049565;28;20055;-78
2022/02/08 10:37:36;;;;;;;2.70;0.73;;;;;;;5.23;48.72;97637.25;5049429;28;20072;-78
2022/02/08 10:38:15;;;;;;;3.95;0.70;;;;;;;5.18;50.03;97646.09;5049371;28;20048;-79
2022/02/08 10:40:42;;;;;;;2.95;0.77;;;;;;;5.20;50.53;97633.16;5049798;28;20056;-78
2022/02/08 10:43:13;;;;;;;2.35;0.63;;;;;;;5.27;48.71;97627.56;5049162;28;20056;-77
2022/02/08 10:45:41;;;;;;;1.75;0.70;;;;;;;5.29;47.98;97630.03;5067597;28;20044;-78
2022/02/08 10:48:09;;;;;;;3.30;0.90;;;;;;;5.29;47.05;97628.13;5068940;28;20071;-77
2022/02/08 10:50:40;;;;;;;3.80;0.77;;;;;;;5.33;47.78;97623.88;5069600;28;20048;-78
2022/02/08 10:53:09;;;;;;;1.55;0.65;;;;;;;5.41;48.18;97622.59;5069128;28;20109;-78
2022/02/08 10:55:45;;;;;;;5.30;0.70;;;;;;;5.47;47.41;97621.56;5069451;28;20056;-78
2022/02/08 10:58:18;;;;;;;2.30;0.52;;;;;;;5.47;48.85;97625.09;5068778;28;20048;-78
2022/02/08 11:00:50;;;;;;;3.90;0.70;;;;;;;5.48;48.45;97623.19;5069306;28;20055;-79
2022/02/08 11:03:21;;;;;;;2.78;0.70;;;;;;;5.49;49.50;97620.25;5069046;28;20049;-78
2022/02/08 11:06:09;;;;;;;4.20;0.70;;;;;;;5.48;49.91;97613.25;5069450;28;20060;-77
2022/02/08 11:08:57;;;;;;;1.48;0.45;;;;;;;5.60;50.21;97614.97;5068727;28;20052;-79
2022/02/08 11:11:43;;;;;;;2.33;0.65;;;;;;;5.74;49.15;97610.75;5068655;28;20060;-78
2022/02/08 11:19:52;;;;;;;6.00;1.08;;;;;;;6.18;48.58;97600.63;5021695;28;20083;-79
2022/02/08 11:22:34;;;;;;;2.53;0.70;;;;;;;6.41;48.01;97599.44;5048658;28;20049;-78
2022/02/08 11:25:03;;;;;;;4.00;0.80;;;;;;;6.60;48.47;97590.91;5049110;28;20057;-79
2022/02/08 11:27:38;;;;;;;3.78;1.00;;;;;;;6.75;50.01;97583.69;5048312;28;20056;-78
2022/02/08 11:30:11;;;;;;;3.13;0.93;;;;;;;6.93;48.88;97585.09;5048262;28;20061;-78
2022/02/08 11:32:54;;;;;;;3.92;0.82;;;;;;;7.04;50.00;97586.75;5048794;28;20482;-77
2022/02/08 11:44:34;;;;;;;3.03;0.70;;;;;;;6.93;50.40;97579.69;5052900;28;20094;-78
2022/02/08 11:47:19;;;;;;;3.88;0.75;;;;;;;7.17;49.99;97579.25;5068169;28;20099;-78
2022/02/08 11:50:06;;;;;;;2.92;0.73;;;;;;;7.28;49.14;97583.63;5068251;28;20044;-78
2022/02/08 11:55:39;;;;;;;2.55;0.70;;;;;;;7.26;51.12;97583.06;5036471;28;20403;-79
2022/02/08 11:58:15;;;;;;;5.53;0.73;;;;;;;7.48;50.03;97582.84;5067780;28;20131;-78
2022/02/08 12:00:45;;;;;;;3.78;0.98;;;;;;;7.94;48.11;97577.50;5068270;28;20048;-78
2022/02/08 12:03:55;;;;;;;3.80;0.80;;;;;;;8.15;47.74;97568.25;5067849;28;20135;-78
2022/02/08 12:06:26;;;;;;;4.05;0.88;;;;;;;8.16;41.95;97569.06;5067832;28;20045;-78
2022/02/08 12:08:58;;;;;;;1.52;0.68;;;;;;;7.96;40.38;97570.69;5067934;28;20550;-79
2022/02/08 12:11:51;;;;;;;1.20;0.50;;;;;;;8.00;41.92;97570.97;5067713;28;20132;-79
2022/02/08 12:28:46;;;;;;;2.58;0.60;;;;;;;7.78;43.86;97568.53;5067425;28;20606;-77
2022/02/08 12:34:02;;;;;;;6.47;1.25;;;;;;;8.11;44.34;97551.72;5067356;28;20526;-78
2022/02/08 12:36:44;;;;;;;3.20;0.70;;;;;;;8.29;43.43;97563.88;5067337;28;20056;-78
2022/02/08 12:56:08;;;;;;;2.17;0.45;;;;;;;8.15;39.59;97529.47;5067537;28;20070;-78
2022/02/08 12:58:52;;;;;;;2.80;0.60;;;;;;;8.05;39.81;97531.09;5066835;28;20048;-80
2022/02/08 13:01:45;;;;;;;1.85;0.50;;;;;;;8.11;40.25;97532.72;5067107;28;20098;-77
2022/02/08 13:04:21;;;;;;;0.85;0.40;;;;;;;8.15;40.04;97524.03;5066848;28;20048;-78
2022/02/08 14:01:51;;;;;;;2.10;0.68;;;;;;;8.63;40.62;97514.44;5070820;28;20090;-78
2022/02/08 14:07:18;;;;;;;1.52;0.50;;;;;;;8.47;42.39;97504.72;5070139;28;20129;-75
2022/02/08 14:09:53;;;;;;;1.88;0.70;;;;;;;8.27;41.93;97505.56;5070348;28;20056;-77
2022/02/08 14:15:51;;;;;;;2.58;0.52;;;;;;;8.09;43.70;97510.50;5051908;28;20064;-77
2022/02/08 14:21:12;;;;;;;3.28;0.40;;;;;;;8.05;45.07;97509.41;5050268;28;20126;-78
2022/02/08 14:32:22;;;;;;;1.45;0.40;;;;;;;8.76;41.63;97508.41;5007057;28;20104;-78
2022/02/08 15:10:19;;;;;;;3.17;0.43;;;;;;;7.66;47.29;97492.88;5049136;28;20052;-77
2022/02/08 15:12:52;;;;;;;0.98;0.40;;;;;;;7.61;47.60;97502.91;5049369;28;20053;-78
2022/02/08 15:15:26;;;;;;;1.70;0.70;;;;;;;7.60;47.46;97499.38;5064231;28;20110;-77
2022/02/08 15:17:53;;;;;;;1.45;0.50;;;;;;;7.59;47.75;97501.28;5069074;28;20063;-79
2022/02/08 15:20:21;;;;;;;0.73;0.40;;;;;;;7.61;47.92;97508.31;5068980;28;20063;-78
2022/02/08 15:22:47;;;;;;;2.45;0.52;;;;;;;7.64;47.92;97507.78;5069391;28;20049;-77
2022/02/08 15:25:14;;;;;;;2.63;0.60;;;;;;;7.64;47.12;97505.09;5068565;28;20675;-78
2022/02/08 15:27:43;;;;;;;1.10;0.63;;;;;;;7.66;46.71;97511.03;5068979;28;20430;-78
2022/02/08 15:30:11;;;;;;;3.38;0.68;;;;;;;7.70;46.49;97509.41;5067836;28;20075;-78
2022/02/08 15:32:38;;;;;;;2.15;0.65;;;;;;;7.69;47.00;97499.66;5068682;28;20044;-78
2022/02/08 15:35:06;;;;;;;3.33;0.73;;;;;;;7.64;46.26;97496.94;5068650;28;20060;-78
2022/02/08 15:37:32;;;;;;;1.25;0.70;;;;;;;7.67;46.88;97501.81;5068848;28;20055;-78
2022/02/08 15:39:59;;;;;;;1.60;0.90;;;;;;;7.62;47.80;97499.09;5068950;28;20056;-77
2022/02/08 15:42:30;;;;;;;2.13;0.47;;;;;;;7.58;48.12;97501.56;5068109;28;20056;-78
2022/02/08 15:44:58;;;;;;;4.30;0.90;;;;;;;7.60;48.32;97502.09;5060706;28;20131;-79
2022/02/08 15:47:28;;;;;;;2.90;0.77;;;;;;;7.64;48.25;97496.94;5068030;28;20068;-78
2022/02/08 15:50:04;;;;;;;3.65;0.85;;;;;;;7.65;48.57;97502.09;5068538;28;20660;-78
2022/02/08 15:52:56;;;;;;;3.85;0.75;;;;;;;7.68;48.80;97500.75;5067955;28;20044;-78
2022/02/08 15:55:32;;;;;;;1.15;0.65;;;;;;;7.67;49.08;97497.19;5067742;28;20109;-78
2022/02/08 15:58:05;;;;;;;3.92;0.90;;;;;;;7.64;49.06;97491.53;5068155;28;20045;-79
2022/02/08 16:00:48;;;;;;;2.10;0.90;;;;;;;7.62;49.70;97494.47;5068396;28;20155;-78
2022/02/08 16:06:50;;;;;;;2.10;1.15;;;;;;;7.48;49.95;97515.91;5042757;28;20029;-78
2022/02/08 16:09:15;;;;;;;3.33;1.00;;;;;;;7.44;49.76;97516.72;5067283;28;20044;-77
2022/02/08 16:14:38;;;;;;;2.72;1.00;;;;;;;7.44;49.10;97514.81;5047246;28;20107;-78